createdAt,value
2019-03-31T00:00:34.151Z,316.93
2019-03-31T00:01:34.163Z,317.12
2019-03-31T00:02:34.136Z,316.82
2019-03-31T00:03:34.127Z,317.01
2019-03-31T00:04:34.198Z,317.07
2019-03-31T00:05:37.089Z,321.72
2019-03-31T00:06:34.081Z,316.75
2019-03-31T00:07:34.081Z,321.14
2019-03-31T00:08:34.075Z,317.31
2019-03-31T00:09:34.050Z,317.36
2019-03-31T00:10:34.048Z,317.09
2019-03-31T00:11:34.064Z,316.89
2019-03-31T00:12:34.049Z,316.95
2019-03-31T00:13:34.012Z,321.50
2019-03-31T00:14:34.005Z,317.15
2019-03-31T00:15:33.999Z,317.44
2019-03-31T00:16:33.984Z,317.31
2019-03-31T00:17:33.992Z,317.63
2019-03-31T00:18:34.078Z,317.14
2019-03-31T00:19:33.929Z,322.22
2019-03-31T00:20:33.935Z,317.56
2019-03-31T00:21:33.921Z,317.91
2019-03-31T00:22:33.927Z,317.06
2019-03-31T00:23:33.960Z,317.74
2019-03-31T00:24:33.913Z,317.62
2019-03-31T00:25:33.894Z,317.44
2019-03-31T00:26:33.867Z,316.83
2019-03-31T00:27:33.857Z,317.63
2019-03-31T00:28:33.861Z,317.40
2019-03-31T00:29:33.835Z,317.21
2019-03-31T00:30:33.833Z,316.94
2019-03-31T00:31:33.821Z,316.84
2019-03-31T00:32:33.799Z,317.15
2019-03-31T00:33:33.800Z,316.24
2019-03-31T00:34:33.785Z,316.83
2019-03-31T00:35:33.778Z,317.79
2019-03-31T00:36:33.761Z,317.08
2019-03-31T00:37:33.756Z,322.14
2019-03-31T00:38:33.770Z,316.92
2019-03-31T00:39:33.714Z,321.54
2019-03-31T00:40:33.704Z,316.77
2019-03-31T00:41:33.694Z,321.64
2019-03-31T00:42:33.691Z,316.76
2019-03-31T00:43:33.691Z,321.41
2019-03-31T00:44:33.705Z,316.80
2019-03-31T00:45:33.698Z,321.12
2019-03-31T00:46:33.638Z,316.08
2019-03-31T00:47:33.626Z,320.74
2019-03-31T00:48:33.653Z,315.95
2019-03-31T00:49:33.617Z,320.52
2019-03-31T00:50:33.620Z,315.99
2019-03-31T00:51:33.586Z,320.35
2019-03-31T00:52:33.570Z,315.91
2019-03-31T00:53:33.556Z,315.89
2019-03-31T00:54:33.565Z,315.86
2019-03-31T00:55:33.568Z,315.72
2019-03-31T00:56:33.544Z,319.98
2019-03-31T00:57:33.534Z,319.39
2019-03-31T00:58:33.527Z,320.15
2019-03-31T00:59:33.498Z,319.80
2019-03-31T01:00:33.507Z,319.75
2019-03-31T01:01:36.724Z,314.99
2019-03-31T01:02:33.473Z,319.60
2019-03-31T01:03:33.464Z,314.81
2019-03-31T01:04:33.466Z,314.70
2019-03-31T01:05:33.433Z,320.08
2019-03-31T01:06:33.460Z,319.23
2019-03-31T01:07:33.414Z,319.14
2019-03-31T01:08:33.407Z,320.12
2019-03-31T01:09:33.385Z,319.68
2019-03-31T01:10:33.386Z,319.32
2019-03-31T01:11:33.387Z,319.21
2019-03-31T01:12:33.371Z,319.12
2019-03-31T01:13:33.335Z,319.06
2019-03-31T01:14:33.341Z,318.70
2019-03-31T01:15:33.327Z,319.60
2019-03-31T01:16:33.328Z,319.88
2019-03-31T01:17:33.323Z,319.36
2019-03-31T01:18:33.285Z,318.97
2019-03-31T01:19:33.281Z,319.19
2019-03-31T01:20:33.275Z,319.22
2019-03-31T01:21:33.278Z,319.19
2019-03-31T01:22:33.257Z,319.25
2019-03-31T01:23:33.225Z,319.23
2019-03-31T01:24:33.246Z,319.08
2019-03-31T01:25:33.226Z,319.63
2019-03-31T01:26:33.203Z,318.80
2019-03-31T01:27:33.210Z,314.47
2019-03-31T01:28:33.178Z,319.01
2019-03-31T01:29:33.163Z,319.26
2019-03-31T01:30:33.157Z,320.27
2019-03-31T01:31:33.136Z,314.87
2019-03-31T01:32:33.168Z,319.35
2019-03-31T01:33:33.121Z,314.80
2019-03-31T01:34:33.122Z,314.59
2019-03-31T01:35:33.103Z,318.60
2019-03-31T01:36:33.086Z,318.53
2019-03-31T01:37:33.068Z,313.82
2019-03-31T01:38:33.100Z,314.10
2019-03-31T01:39:33.061Z,318.44
2019-03-31T01:40:33.048Z,318.47
2019-03-31T01:41:33.038Z,318.69
2019-03-31T01:42:33.022Z,319.20
2019-03-31T01:43:33.004Z,315.13
2019-03-31T01:44:33.023Z,318.83
2019-03-31T01:45:32.997Z,314.10
2019-03-31T01:46:32.981Z,313.62
2019-03-31T01:47:32.979Z,313.93
2019-03-31T01:48:32.960Z,313.44
2019-03-31T01:49:32.969Z,313.42
2019-03-31T01:50:32.947Z,313.71
2019-03-31T01:51:32.929Z,313.36
2019-03-31T01:52:32.918Z,313.48
2019-03-31T01:53:32.902Z,312.53
2019-03-31T01:54:32.883Z,313.67
2019-03-31T01:55:32.894Z,312.98
2019-03-31T01:56:32.860Z,313.49
2019-03-31T01:57:32.854Z,313.61
2019-03-31T01:58:32.845Z,313.52
2019-03-31T01:59:32.834Z,312.70
2019-03-31T02:00:32.848Z,314.23
2019-03-31T02:01:32.814Z,313.29
2019-03-31T02:02:32.812Z,312.96
2019-03-31T02:03:32.789Z,313.43
2019-03-31T02:04:32.788Z,312.79
2019-03-31T02:05:32.753Z,313.17
2019-03-31T02:06:32.821Z,313.23
2019-03-31T02:07:32.744Z,312.53
2019-03-31T02:08:32.723Z,312.92
2019-03-31T02:09:32.722Z,313.27
2019-03-31T02:10:32.766Z,313.28
2019-03-31T02:11:32.706Z,313.23
2019-03-31T02:12:32.696Z,313.70
2019-03-31T02:13:32.682Z,312.91
2019-03-31T02:14:32.664Z,312.78
2019-03-31T02:15:32.663Z,312.62
2019-03-31T02:16:32.659Z,313.71
2019-03-31T02:17:32.623Z,313.05
2019-03-31T02:18:32.633Z,312.98
2019-03-31T02:19:32.625Z,312.71
2019-03-31T02:20:32.600Z,312.35
2019-03-31T02:21:32.621Z,312.59
2019-03-31T02:22:32.564Z,312.74
2019-03-31T02:23:32.561Z,312.77
2019-03-31T02:24:32.571Z,312.70
2019-03-31T02:25:32.545Z,312.33
2019-03-31T02:26:32.527Z,312.68
2019-03-31T02:27:32.538Z,312.35
2019-03-31T02:28:32.545Z,312.09
2019-03-31T02:29:32.493Z,312.83
2019-03-31T02:30:32.493Z,313.12
2019-03-31T02:31:32.481Z,312.46
2019-03-31T02:32:32.494Z,312.83
2019-03-31T02:33:32.466Z,313.13
2019-03-31T02:34:32.457Z,313.03
2019-03-31T02:35:32.435Z,312.92
2019-03-31T02:36:32.416Z,312.76
2019-03-31T02:37:32.406Z,313.17
2019-03-31T02:38:32.457Z,313.22
2019-03-31T02:39:32.403Z,313.15
2019-03-31T02:40:32.375Z,313.47
2019-03-31T02:41:32.363Z,312.75
2019-03-31T02:42:32.359Z,312.81
2019-03-31T02:43:32.372Z,312.79
2019-03-31T02:44:32.737Z,312.64
2019-03-31T02:45:32.338Z,312.55
2019-03-31T02:46:32.321Z,312.68
2019-03-31T02:47:32.304Z,312.76
2019-03-31T02:48:32.308Z,313.17
2019-03-31T02:49:32.291Z,312.88
2019-03-31T02:50:32.268Z,313.28
2019-03-31T02:51:32.276Z,313.20
2019-03-31T02:52:32.272Z,313.29
2019-03-31T02:53:32.238Z,313.01
2019-03-31T02:54:32.227Z,313.11
2019-03-31T02:55:32.230Z,313.06
2019-03-31T02:56:32.221Z,312.71
2019-03-31T02:57:32.193Z,312.92
2019-03-31T02:58:32.170Z,312.66
2019-03-31T02:59:32.167Z,312.78
2019-03-31T03:00:32.193Z,313.54
2019-03-31T03:01:32.164Z,313.56
2019-03-31T03:02:41.368Z,313.10
2019-03-31T03:03:33.128Z,312.67
2019-03-31T03:04:32.118Z,312.14
2019-03-31T03:05:32.129Z,312.25
2019-03-31T03:06:32.139Z,313.13
2019-03-31T03:07:32.064Z,312.55
2019-03-31T03:08:32.074Z,312.59
2019-03-31T03:09:32.072Z,313.10
2019-03-31T03:10:32.046Z,313.43
2019-03-31T03:11:32.058Z,312.59
2019-03-31T03:12:32.027Z,311.83
2019-03-31T03:13:32.004Z,312.32
2019-03-31T03:14:32.012Z,312.73
2019-03-31T03:15:31.991Z,312.68
2019-03-31T03:16:32.007Z,313.59
2019-03-31T03:17:31.986Z,313.07
2019-03-31T03:18:31.966Z,313.02
2019-03-31T03:19:31.959Z,312.91
2019-03-31T03:20:31.927Z,312.44
2019-03-31T03:21:31.936Z,312.57
2019-03-31T03:22:31.947Z,312.75
2019-03-31T03:23:31.916Z,312.57
2019-03-31T03:24:31.895Z,313.10
2019-03-31T03:25:31.885Z,313.04
2019-03-31T03:26:31.894Z,313.29
2019-03-31T03:27:31.851Z,313.30
2019-03-31T03:28:31.849Z,312.99
2019-03-31T03:29:31.837Z,312.61
2019-03-31T03:30:31.894Z,312.83
2019-03-31T03:31:31.840Z,312.81
2019-03-31T03:32:31.813Z,313.23
2019-03-31T03:33:31.789Z,313.23
2019-03-31T03:34:31.794Z,313.07
2019-03-31T03:35:31.779Z,313.11
2019-03-31T03:36:31.800Z,313.14
2019-03-31T03:37:31.751Z,313.63
2019-03-31T03:38:31.743Z,313.61
2019-03-31T03:39:31.727Z,313.69
2019-03-31T03:40:31.712Z,313.71
2019-03-31T03:41:31.699Z,313.23
2019-03-31T03:42:31.719Z,313.61
2019-03-31T03:43:31.685Z,313.17
2019-03-31T03:44:31.663Z,313.25
2019-03-31T03:45:31.685Z,313.28
2019-03-31T03:46:31.681Z,313.14
2019-03-31T03:47:31.657Z,313.48
2019-03-31T03:48:31.624Z,313.50
2019-03-31T03:49:31.620Z,313.27
2019-03-31T03:50:31.600Z,313.49
2019-03-31T03:51:31.588Z,313.27
2019-03-31T03:52:31.599Z,313.41
2019-03-31T03:53:31.565Z,313.40
2019-03-31T03:54:31.557Z,314.11
2019-03-31T03:55:31.576Z,315.25
2019-03-31T03:56:31.539Z,314.24
2019-03-31T03:57:31.557Z,314.28
2019-03-31T03:58:31.517Z,313.92
2019-03-31T03:59:31.501Z,314.40
2019-03-31T04:00:31.503Z,314.11
2019-03-31T04:01:31.483Z,314.15
2019-03-31T04:02:31.469Z,313.95
2019-03-31T04:03:31.496Z,314.08
2019-03-31T04:04:31.446Z,313.98
2019-03-31T04:05:31.427Z,314.10
2019-03-31T04:06:31.437Z,314.27
2019-03-31T04:07:31.439Z,314.36
2019-03-31T04:08:31.406Z,313.63
2019-03-31T04:09:31.429Z,314.23
2019-03-31T04:10:31.378Z,314.39
2019-03-31T04:11:31.362Z,314.02
2019-03-31T04:12:31.362Z,313.63
2019-03-31T04:13:31.353Z,314.05
2019-03-31T04:14:31.368Z,313.57
2019-03-31T04:15:31.334Z,313.59
2019-03-31T04:16:31.319Z,314.09
2019-03-31T04:17:31.305Z,314.41
2019-03-31T04:18:31.325Z,313.83
2019-03-31T04:19:31.290Z,313.74
2019-03-31T04:20:31.301Z,314.12
2019-03-31T04:21:31.276Z,314.30
2019-03-31T04:22:31.260Z,313.73
2019-03-31T04:23:31.230Z,312.77
2019-03-31T04:24:31.225Z,313.81
2019-03-31T04:25:31.266Z,313.75
2019-03-31T04:26:31.229Z,313.43
2019-03-31T04:27:31.198Z,312.58
2019-03-31T04:28:31.204Z,312.85
2019-03-31T04:29:31.180Z,313.07
2019-03-31T04:30:31.159Z,312.62
2019-03-31T04:31:31.192Z,312.84
2019-03-31T04:32:31.153Z,313.10
2019-03-31T04:33:49.500Z,312.85
2019-03-31T04:34:32.116Z,312.50
2019-03-31T04:35:31.115Z,313.19
2019-03-31T04:36:31.114Z,313.50
2019-03-31T04:37:31.083Z,312.92
2019-03-31T04:38:31.096Z,313.03
2019-03-31T04:39:31.087Z,313.06
2019-03-31T04:40:31.060Z,312.93
2019-03-31T04:41:31.062Z,312.91
2019-03-31T04:42:31.040Z,312.12
2019-03-31T04:43:31.024Z,312.30
2019-03-31T04:44:31.013Z,312.08
2019-03-31T04:45:30.998Z,311.99
2019-03-31T04:46:31.005Z,312.40
2019-03-31T04:47:30.975Z,312.25
2019-03-31T04:48:30.968Z,312.23
2019-03-31T04:49:30.943Z,312.45
2019-03-31T04:50:30.947Z,312.54
2019-03-31T04:51:30.955Z,312.28
2019-03-31T04:52:30.958Z,312.14
2019-03-31T04:53:30.914Z,312.47
2019-03-31T04:54:30.916Z,312.33
2019-03-31T04:55:30.882Z,312.16
2019-03-31T04:56:30.880Z,312.63
2019-03-31T04:57:30.857Z,312.57
2019-03-31T04:58:30.876Z,312.31
2019-03-31T04:59:30.858Z,313.09
2019-03-31T05:00:30.840Z,311.91
2019-03-31T05:01:30.829Z,312.32
2019-03-31T05:02:30.798Z,312.53
2019-03-31T05:03:30.840Z,312.58
2019-03-31T05:04:30.802Z,312.36
2019-03-31T05:05:30.785Z,311.87
2019-03-31T05:06:30.776Z,312.22
2019-03-31T05:07:30.780Z,312.37
2019-03-31T05:08:30.759Z,312.80
2019-03-31T05:09:30.753Z,312.56
2019-03-31T05:10:30.726Z,312.82
2019-03-31T05:11:30.719Z,313.27
2019-03-31T05:12:31.236Z,312.48
2019-03-31T05:13:30.693Z,312.84
2019-03-31T05:14:30.684Z,312.71
2019-03-31T05:15:30.683Z,312.81
2019-03-31T05:16:30.666Z,312.55
2019-03-31T05:17:30.671Z,312.73
2019-03-31T05:18:31.241Z,312.43
2019-03-31T05:19:30.638Z,312.49
2019-03-31T05:20:30.634Z,312.59
2019-03-31T05:21:30.601Z,313.08
2019-03-31T05:22:30.601Z,312.61
2019-03-31T05:23:30.587Z,312.92
2019-03-31T05:24:30.588Z,312.60
2019-03-31T05:25:30.573Z,312.15
2019-03-31T05:26:30.531Z,312.94
2019-03-31T05:27:30.550Z,312.56
2019-03-31T05:28:30.513Z,312.73
2019-03-31T05:29:30.533Z,312.13
2019-03-31T05:30:30.507Z,312.55
2019-03-31T05:31:30.496Z,312.61
2019-03-31T05:32:30.512Z,312.83
2019-03-31T05:33:30.476Z,312.21
2019-03-31T05:34:30.462Z,312.62
2019-03-31T05:35:30.456Z,312.45
2019-03-31T05:36:30.435Z,312.78
2019-03-31T05:37:30.437Z,312.45
2019-03-31T05:38:30.433Z,312.34
2019-03-31T05:39:30.403Z,313.35
2019-03-31T05:40:30.837Z,314.05
2019-03-31T05:41:30.395Z,312.30
2019-03-31T05:42:30.373Z,312.85
2019-03-31T05:43:30.368Z,312.96
2019-03-31T05:44:30.422Z,312.48
2019-03-31T05:45:30.334Z,314.25
2019-03-31T05:46:30.317Z,312.35
2019-03-31T05:47:30.342Z,312.04
2019-03-31T05:48:30.301Z,311.94
2019-03-31T05:49:30.288Z,311.84
2019-03-31T05:50:30.310Z,312.37
2019-03-31T05:51:30.286Z,312.14
2019-03-31T05:52:30.257Z,312.02
2019-03-31T05:53:30.278Z,311.67
2019-03-31T05:54:30.243Z,311.77
2019-03-31T05:55:30.236Z,311.58
2019-03-31T05:56:30.261Z,312.06
2019-03-31T05:57:30.207Z,311.25
2019-03-31T05:58:30.187Z,311.94
2019-03-31T05:59:30.198Z,311.50
2019-03-31T06:00:30.169Z,312.20
2019-03-31T06:01:30.154Z,311.53
2019-03-31T06:02:30.180Z,312.39
2019-03-31T06:03:30.190Z,311.64
2019-03-31T06:04:33.359Z,311.86
2019-03-31T06:05:30.123Z,312.32
2019-03-31T06:06:30.103Z,311.73
2019-03-31T06:07:30.087Z,311.40
2019-03-31T06:08:30.099Z,311.85
2019-03-31T06:09:30.069Z,310.22
2019-03-31T06:10:30.050Z,310.73
2019-03-31T06:11:30.043Z,311.01
2019-03-31T06:12:30.038Z,311.51
2019-03-31T06:13:30.075Z,311.06
2019-03-31T06:14:30.023Z,310.90
2019-03-31T06:15:30.020Z,311.10
2019-03-31T06:16:30.019Z,315.77
2019-03-31T06:17:29.985Z,310.98
2019-03-31T06:18:29.971Z,316.03
2019-03-31T06:19:29.974Z,310.54
2019-03-31T06:20:29.943Z,315.51
2019-03-31T06:21:29.946Z,311.29
2019-03-31T06:22:30.684Z,315.83
2019-03-31T06:23:29.943Z,311.50
2019-03-31T06:24:29.890Z,315.56
2019-03-31T06:25:29.893Z,311.26
2019-03-31T06:26:29.908Z,316.73
2019-03-31T06:27:29.875Z,310.95
2019-03-31T06:28:29.889Z,311.25
2019-03-31T06:29:29.883Z,310.64
2019-03-31T06:30:29.863Z,311.93
2019-03-31T06:31:29.847Z,311.73
2019-03-31T06:32:29.825Z,316.82
2019-03-31T06:33:29.819Z,317.28
2019-03-31T06:34:29.814Z,317.22
2019-03-31T06:35:29.871Z,312.35
2019-03-31T06:36:29.820Z,316.92
2019-03-31T06:37:29.764Z,312.22
2019-03-31T06:38:29.747Z,316.91
2019-03-31T06:39:29.751Z,312.92
2019-03-31T06:40:29.750Z,317.51
2019-03-31T06:41:29.713Z,313.10
2019-03-31T06:42:29.719Z,318.01
2019-03-31T06:43:29.688Z,313.82
2019-03-31T06:44:29.680Z,317.72
2019-03-31T06:45:29.688Z,313.27
2019-03-31T06:46:29.681Z,313.60
2019-03-31T06:47:29.652Z,313.25
2019-03-31T06:48:29.642Z,318.38
2019-03-31T06:49:29.644Z,312.59
2019-03-31T06:50:29.625Z,312.87
2019-03-31T06:51:29.626Z,313.23
2019-03-31T06:52:29.593Z,311.86
2019-03-31T06:53:29.573Z,313.38
2019-03-31T06:54:29.575Z,319.26
2019-03-31T06:55:29.595Z,314.51
2019-03-31T06:56:29.547Z,312.86
2019-03-31T06:57:29.532Z,313.06
2019-03-31T06:58:29.532Z,313.92
2019-03-31T06:59:29.518Z,313.43
2019-03-31T07:00:29.508Z,311.33
2019-03-31T07:01:29.514Z,311.98
2019-03-31T07:02:29.493Z,317.55
2019-03-31T07:03:29.467Z,312.25
2019-03-31T07:04:29.451Z,316.73
2019-03-31T07:05:29.459Z,311.32
2019-03-31T07:06:29.480Z,315.93
2019-03-31T07:07:29.433Z,310.36
2019-03-31T07:08:29.416Z,316.84
2019-03-31T07:09:29.416Z,310.38
2019-03-31T07:10:29.388Z,315.34
2019-03-31T07:11:29.389Z,310.67
2019-03-31T07:12:29.411Z,308.71
2019-03-31T07:13:29.364Z,309.32
2019-03-31T07:14:29.339Z,314.66
2019-03-31T07:15:29.338Z,309.10
2019-03-31T07:16:29.321Z,309.80
2019-03-31T07:17:29.324Z,308.61
2019-03-31T07:18:29.328Z,313.70
2019-03-31T07:19:29.307Z,307.53
2019-03-31T07:20:29.287Z,309.02
2019-03-31T07:21:29.278Z,309.06
2019-03-31T07:22:29.282Z,310.98
2019-03-31T07:23:29.250Z,309.91
2019-03-31T07:24:29.234Z,314.71
2019-03-31T07:25:29.224Z,311.51
2019-03-31T07:26:29.218Z,312.86
2019-03-31T07:27:29.227Z,308.81
2019-03-31T07:28:29.205Z,313.79
2019-03-31T07:29:29.178Z,309.32
2019-03-31T07:30:29.179Z,314.49
2019-03-31T07:31:29.171Z,310.92
2019-03-31T07:32:29.173Z,313.47
2019-03-31T07:33:29.144Z,313.75
2019-03-31T07:34:29.129Z,313.48
2019-03-31T07:35:29.112Z,313.46
2019-03-31T07:36:29.119Z,314.06
2019-03-31T07:37:29.091Z,312.91
2019-03-31T07:38:38.719Z,314.15
2019-03-31T07:39:30.358Z,309.09
2019-03-31T07:40:29.254Z,313.61
2019-03-31T07:41:29.122Z,309.92
2019-03-31T07:42:29.075Z,313.80
2019-03-31T07:43:29.041Z,307.32
2019-03-31T07:44:29.062Z,312.40
2019-03-31T07:45:29.313Z,306.99
2019-03-31T07:46:28.987Z,307.58
2019-03-31T07:47:28.977Z,307.86
2019-03-31T07:48:28.964Z,307.85
2019-03-31T07:49:28.950Z,307.98
2019-03-31T07:50:28.986Z,306.74
2019-03-31T07:51:28.953Z,307.42
2019-03-31T07:52:28.931Z,307.79
2019-03-31T07:53:28.924Z,307.53
2019-03-31T07:54:28.907Z,306.70
2019-03-31T07:55:28.900Z,306.36
2019-03-31T07:56:28.919Z,307.36
2019-03-31T07:57:28.872Z,308.12
2019-03-31T07:58:28.900Z,307.81
2019-03-31T07:59:28.916Z,309.34
2019-03-31T08:00:28.861Z,308.98
2019-03-31T08:01:28.826Z,307.97
2019-03-31T08:02:28.855Z,307.48
2019-03-31T08:03:28.811Z,307.43
2019-03-31T08:04:28.829Z,308.48
2019-03-31T08:05:33.293Z,307.05
2019-03-31T08:06:29.763Z,308.51
2019-03-31T08:07:28.777Z,306.75
2019-03-31T08:08:28.748Z,308.49
2019-03-31T08:09:28.734Z,307.41
2019-03-31T08:10:28.744Z,307.81
2019-03-31T08:11:28.726Z,309.61
2019-03-31T08:12:28.743Z,309.33
2019-03-31T08:13:28.720Z,309.02
2019-03-31T08:14:28.688Z,307.47
2019-03-31T08:15:28.698Z,308.68
2019-03-31T08:16:28.661Z,308.05
2019-03-31T08:17:28.683Z,308.37
2019-03-31T08:18:28.640Z,306.52
2019-03-31T08:19:28.628Z,308.34
2019-03-31T08:20:28.617Z,310.22
2019-03-31T08:21:28.606Z,307.99
2019-03-31T08:22:28.634Z,308.47
2019-03-31T08:23:28.599Z,309.10
2019-03-31T08:24:28.582Z,309.59
2019-03-31T08:25:28.579Z,309.39
2019-03-31T08:26:28.551Z,307.71
2019-03-31T08:27:28.566Z,308.89
2019-03-31T08:28:28.532Z,311.34
2019-03-31T08:29:28.515Z,311.88
2019-03-31T08:30:28.513Z,310.92
2019-03-31T08:31:28.513Z,311.99
2019-03-31T08:32:28.736Z,309.60
2019-03-31T08:33:28.532Z,309.51
2019-03-31T08:34:28.473Z,310.59
2019-03-31T08:35:28.468Z,312.49
2019-03-31T08:36:28.469Z,316.50
2019-03-31T08:37:28.430Z,312.03
2019-03-31T08:38:28.414Z,310.80
2019-03-31T08:39:28.421Z,311.31
2019-03-31T08:40:28.388Z,310.56
2019-03-31T08:41:28.383Z,311.62
2019-03-31T08:42:28.402Z,310.73
2019-03-31T08:43:28.371Z,310.02
2019-03-31T08:44:28.822Z,311.03
2019-03-31T08:45:30.399Z,309.72
2019-03-31T08:46:28.351Z,310.39
2019-03-31T08:47:28.327Z,311.14
2019-03-31T08:48:28.315Z,311.33
2019-03-31T08:49:28.325Z,308.26
2019-03-31T08:50:28.286Z,309.33
2019-03-31T08:51:28.280Z,308.82
2019-03-31T08:52:28.330Z,308.58
2019-03-31T08:53:28.249Z,310.00
2019-03-31T08:54:28.259Z,310.00
2019-03-31T08:55:28.246Z,308.38
2019-03-31T08:56:28.257Z,308.92
2019-03-31T08:57:28.215Z,308.23
2019-03-31T08:58:28.216Z,309.55
2019-03-31T08:59:28.191Z,308.78
2019-03-31T09:00:28.174Z,310.21
2019-03-31T09:01:28.196Z,310.48
2019-03-31T09:02:28.177Z,310.03
2019-03-31T09:03:28.178Z,309.65
2019-03-31T09:04:28.132Z,310.20
2019-03-31T09:05:28.117Z,310.41
2019-03-31T09:06:28.130Z,310.48
2019-03-31T09:07:28.122Z,310.01
2019-03-31T09:08:28.115Z,310.35
2019-03-31T09:09:28.090Z,310.58
2019-03-31T09:10:28.056Z,309.75
2019-03-31T09:11:28.056Z,309.76
2019-03-31T09:12:28.065Z,310.19
2019-03-31T09:13:28.044Z,309.97
2019-03-31T09:14:28.032Z,309.34
2019-03-31T09:15:28.017Z,309.96
2019-03-31T09:16:27.997Z,311.34
2019-03-31T09:17:28.000Z,310.80
2019-03-31T09:18:27.983Z,310.59
2019-03-31T09:19:28.010Z,311.50
2019-03-31T09:20:27.979Z,309.80
2019-03-31T09:21:27.952Z,310.42
2019-03-31T09:22:27.934Z,310.31
2019-03-31T09:23:27.922Z,309.39
2019-03-31T09:24:27.940Z,310.52
2019-03-31T09:25:27.896Z,309.20
2019-03-31T09:26:27.908Z,310.24
2019-03-31T09:27:27.883Z,310.77
2019-03-31T09:28:27.870Z,311.65
2019-03-31T09:29:27.947Z,311.45
2019-03-31T09:30:27.863Z,311.05
2019-03-31T09:31:27.838Z,311.20
2019-03-31T09:32:27.844Z,309.40
2019-03-31T09:33:27.807Z,310.22
2019-03-31T09:34:27.809Z,311.78
2019-03-31T09:35:27.836Z,311.29
2019-03-31T09:36:27.792Z,312.01
2019-03-31T09:37:27.774Z,311.32
2019-03-31T09:38:27.799Z,311.44
2019-03-31T09:39:27.746Z,310.46
2019-03-31T09:40:27.775Z,310.44
2019-03-31T09:41:27.784Z,310.26
2019-03-31T09:42:27.712Z,310.33
2019-03-31T09:43:27.691Z,311.18
2019-03-31T09:44:30.280Z,312.72
2019-03-31T09:45:27.701Z,312.02
2019-03-31T09:46:27.691Z,311.52
2019-03-31T09:47:27.655Z,311.45
2019-03-31T09:48:27.649Z,312.63
2019-03-31T09:49:27.673Z,311.03
2019-03-31T09:50:27.619Z,310.82
2019-03-31T09:51:27.598Z,310.67
2019-03-31T09:52:27.616Z,309.97
2019-03-31T09:53:27.594Z,310.44
2019-03-31T09:54:27.627Z,310.23
2019-03-31T09:55:27.583Z,311.69
2019-03-31T09:56:27.589Z,312.99
2019-03-31T09:57:27.547Z,311.21
2019-03-31T09:58:27.626Z,312.56
2019-03-31T09:59:27.527Z,311.65
2019-03-31T10:00:27.518Z,313.23
2019-03-31T10:01:27.527Z,312.21
2019-03-31T10:02:27.539Z,311.71
2019-03-31T10:03:27.482Z,311.38
2019-03-31T10:04:27.469Z,312.15
2019-03-31T10:05:27.454Z,311.15
2019-03-31T10:06:30.409Z,310.12
2019-03-31T10:07:27.438Z,311.15
2019-03-31T10:08:27.449Z,311.45
2019-03-31T10:09:27.407Z,311.29
2019-03-31T10:10:27.403Z,312.14
2019-03-31T10:11:27.400Z,312.17
2019-03-31T10:12:27.380Z,313.86
2019-03-31T10:13:27.404Z,311.22
2019-03-31T10:14:27.358Z,311.28
2019-03-31T10:15:27.342Z,311.98
2019-03-31T10:16:27.330Z,311.51
2019-03-31T10:17:27.328Z,311.44
2019-03-31T10:18:27.325Z,311.83
2019-03-31T10:19:27.341Z,313.40
2019-03-31T10:20:27.296Z,312.05
2019-03-31T10:21:27.293Z,311.51
2019-03-31T10:22:27.284Z,313.14
2019-03-31T10:23:27.275Z,312.08
2019-03-31T10:24:27.269Z,312.55
2019-03-31T10:25:27.243Z,312.53
2019-03-31T10:26:32.082Z,316.68
2019-03-31T10:27:28.215Z,312.20
2019-03-31T10:28:27.209Z,316.65
2019-03-31T10:29:27.207Z,312.29
2019-03-31T10:30:27.187Z,316.06
2019-03-31T10:31:27.186Z,312.41
2019-03-31T10:32:27.156Z,316.14
2019-03-31T10:33:27.159Z,313.02
2019-03-31T10:34:27.162Z,318.49
2019-03-31T10:35:27.131Z,313.47
2019-03-31T10:36:27.147Z,317.20
2019-03-31T10:37:27.103Z,318.70
2019-03-31T10:38:27.092Z,319.09
2019-03-31T10:39:27.106Z,314.36
2019-03-31T10:40:27.069Z,317.71
2019-03-31T10:41:27.067Z,317.04
2019-03-31T10:42:27.053Z,316.72
2019-03-31T10:43:27.054Z,317.40
2019-03-31T10:44:27.048Z,315.29
2019-03-31T10:45:27.026Z,313.02
2019-03-31T10:46:26.998Z,316.62
2019-03-31T10:47:27.018Z,311.75
2019-03-31T10:48:26.980Z,316.29
2019-03-31T10:49:27.003Z,312.05
2019-03-31T10:50:26.968Z,316.06
2019-03-31T10:51:26.950Z,310.03
2019-03-31T10:52:26.938Z,315.11
2019-03-31T10:53:26.946Z,309.78
2019-03-31T10:54:26.920Z,311.60
2019-03-31T10:55:26.923Z,311.57
2019-03-31T10:56:27.024Z,316.50
2019-03-31T10:57:26.890Z,310.18
2019-03-31T10:58:26.866Z,316.36
2019-03-31T10:59:26.856Z,310.59
2019-03-31T11:00:26.898Z,311.06
2019-03-31T11:01:26.837Z,311.54
2019-03-31T11:02:26.834Z,316.40
2019-03-31T11:03:26.819Z,313.21
2019-03-31T11:04:26.804Z,315.11
2019-03-31T11:05:26.816Z,311.72
2019-03-31T11:06:26.789Z,317.33
2019-03-31T11:07:26.772Z,311.15
2019-03-31T11:08:26.758Z,318.79
2019-03-31T11:09:26.744Z,312.08
2019-03-31T11:10:26.768Z,317.53
2019-03-31T11:11:26.729Z,311.68
2019-03-31T11:12:26.714Z,316.90
2019-03-31T11:13:26.705Z,309.90
2019-03-31T11:14:26.697Z,317.98
2019-03-31T11:15:26.695Z,309.12
2019-03-31T11:16:26.711Z,310.41
2019-03-31T11:17:26.684Z,310.81
2019-03-31T11:18:26.646Z,310.38
2019-03-31T11:19:26.624Z,311.88
2019-03-31T11:20:26.625Z,310.80
2019-03-31T11:21:26.612Z,308.54
2019-03-31T11:22:26.626Z,309.80
2019-03-31T11:23:26.595Z,306.11
2019-03-31T11:24:26.592Z,315.38
2019-03-31T11:25:29.316Z,307.10
2019-03-31T11:26:26.571Z,309.31
2019-03-31T11:27:26.585Z,311.23
2019-03-31T11:28:26.545Z,309.06
2019-03-31T11:29:26.533Z,308.45
2019-03-31T11:30:26.515Z,308.48
2019-03-31T11:31:26.504Z,307.27
2019-03-31T11:32:26.484Z,311.64
2019-03-31T11:33:26.513Z,309.59
2019-03-31T11:34:26.476Z,308.68
2019-03-31T11:35:26.471Z,312.29
2019-03-31T11:36:26.455Z,314.17
2019-03-31T11:37:26.441Z,309.20
2019-03-31T11:38:26.463Z,314.69
2019-03-31T11:39:26.423Z,313.47
2019-03-31T11:40:26.402Z,312.87
2019-03-31T11:41:26.390Z,307.58
2019-03-31T11:42:26.399Z,312.44
2019-03-31T11:43:26.389Z,305.29
2019-03-31T11:44:27.855Z,312.99
2019-03-31T11:45:26.343Z,314.47
2019-03-31T11:46:26.345Z,315.76
2019-03-31T11:47:26.345Z,308.66
2019-03-31T11:48:26.361Z,312.92
2019-03-31T11:49:26.316Z,308.75
2019-03-31T11:50:26.299Z,312.09
2019-03-31T11:51:26.297Z,306.15
2019-03-31T11:52:26.275Z,313.74
2019-03-31T11:53:26.301Z,307.45
2019-03-31T11:54:26.295Z,305.55
2019-03-31T11:55:26.300Z,300.96
2019-03-31T11:56:26.243Z,304.35
2019-03-31T11:57:26.230Z,301.97
2019-03-31T11:58:26.211Z,307.99
2019-03-31T11:59:26.225Z,305.89
2019-03-31T12:00:26.205Z,306.35
2019-03-31T12:01:26.203Z,309.44
2019-03-31T12:02:27.594Z,307.81
2019-03-31T12:03:26.296Z,301.43
2019-03-31T12:04:26.152Z,305.80
2019-03-31T12:05:26.194Z,302.73
2019-03-31T12:06:26.144Z,303.66
2019-03-31T12:07:28.153Z,303.13
2019-03-31T12:08:26.143Z,299.90
2019-03-31T12:09:26.107Z,305.72
2019-03-31T12:10:26.117Z,302.96
2019-03-31T12:11:26.088Z,303.19
2019-03-31T12:12:26.075Z,298.73
2019-03-31T12:13:26.081Z,297.88
2019-03-31T12:14:26.062Z,300.67
2019-03-31T12:15:26.101Z,299.70
2019-03-31T12:16:26.047Z,299.25
2019-03-31T12:17:26.026Z,302.38
2019-03-31T12:18:26.022Z,301.69
2019-03-31T12:19:26.015Z,304.45
2019-03-31T12:20:26.002Z,300.27
2019-03-31T12:21:26.011Z,302.38
2019-03-31T12:22:25.989Z,298.61
2019-03-31T12:23:25.963Z,300.57
2019-03-31T12:24:25.953Z,302.93
2019-03-31T12:25:25.960Z,305.09
2019-03-31T12:26:25.950Z,301.84
2019-03-31T12:27:25.971Z,301.72
2019-03-31T12:28:25.945Z,301.08